createdAt,value
2019-01-18T00:02:04.118Z,-7.33
2019-01-18T00:04:33.419Z,-7.31
2019-01-18T00:07:03.254Z,-7.29
2019-01-18T00:09:51.790Z,-7.27
2019-01-18T00:12:21.075Z,-7.28
2019-01-18T00:14:50.370Z,-7.24
2019-01-18T00:17:19.680Z,-7.25
2019-01-18T00:19:49.131Z,-7.26
2019-01-18T00:22:18.483Z,-7.23
2019-01-18T00:24:47.792Z,-7.22
2019-01-18T00:27:28.762Z,-7.24
2019-01-18T00:29:58.135Z,-7.24
2019-01-18T00:32:27.439Z,-7.25
2019-01-18T00:34:56.872Z,-7.26
2019-01-18T00:37:26.150Z,-7.27
2019-01-18T00:39:55.459Z,-7.27
2019-01-18T00:42:43.797Z,-7.26
2019-01-18T00:45:14.487Z,-7.23
2019-01-18T00:47:43.842Z,-7.20
2019-01-18T00:50:32.192Z,-7.22
2019-01-18T00:53:01.519Z,-7.22
2019-01-18T00:55:30.838Z,-7.25
2019-01-18T00:58:00.265Z,-7.26
2019-01-18T01:00:29.913Z,-7.83
2019-01-18T01:05:35.177Z,-7.49
2019-01-18T01:08:15.655Z,-7.28
2019-01-18T01:10:45.199Z,-7.29
2019-01-18T01:13:14.489Z,-7.29
2019-01-18T01:15:44.066Z,-7.27
2019-01-18T01:18:13.371Z,-7.25
2019-01-18T01:20:42.868Z,-7.23
2019-01-18T01:23:12.187Z,-7.58
2019-01-18T01:25:41.620Z,-7.28
2019-01-18T01:28:10.911Z,-7.29
2019-01-18T01:30:40.209Z,-7.30
2019-01-18T01:35:57.966Z,-7.33
2019-01-18T01:38:27.341Z,-7.33
2019-01-18T01:40:56.635Z,-7.34
2019-01-18T01:43:26.299Z,-7.33
2019-01-18T01:45:55.576Z,-7.34
2019-01-18T01:48:25.150Z,-7.33
2019-01-18T01:50:54.442Z,-7.34
2019-01-18T01:53:24.031Z,-7.34
2019-01-18T01:55:53.335Z,-7.27
2019-01-18T01:58:22.879Z,-7.35
2019-01-18T02:00:52.191Z,-7.10
2019-01-18T02:03:40.456Z,-6.72
2019-01-18T02:06:10.147Z,-6.67
2019-01-18T02:08:39.431Z,-6.70
2019-01-18T02:11:09.157Z,-6.71
2019-01-18T02:13:38.458Z,-6.72
2019-01-18T02:16:08.167Z,-6.72
2019-01-18T02:18:37.479Z,-6.68
2019-01-18T02:21:27.192Z,-6.60
2019-01-18T02:23:56.502Z,-6.56
2019-01-18T02:26:25.809Z,-6.51
2019-01-18T02:28:55.300Z,-6.52
2019-01-18T02:31:24.611Z,-6.51
2019-01-18T02:33:54.279Z,-6.42
2019-01-18T02:36:23.570Z,-6.36
2019-01-18T02:38:53.229Z,-6.32
2019-01-18T02:41:22.522Z,-6.37
2019-01-18T02:43:52.105Z,-6.39
2019-01-18T02:46:21.435Z,-6.44
2019-01-18T02:48:51.148Z,-6.51
2019-01-18T02:51:20.453Z,-6.53
2019-01-18T02:54:08.791Z,-6.54
2019-01-18T02:56:38.093Z,-6.57
2019-01-18T02:59:07.479Z,-6.61
2019-01-18T03:01:36.917Z,-6.63
2019-01-18T03:04:06.255Z,-6.67
2019-01-18T03:06:35.656Z,-6.70
2019-01-18T03:09:25.470Z,-6.71
2019-01-18T03:11:54.806Z,-6.75
2019-01-18T03:14:24.108Z,-6.78
2019-01-18T03:16:53.481Z,-6.79
2019-01-18T03:19:22.861Z,-6.81
2019-01-18T03:21:52.160Z,-6.82
2019-01-18T03:24:21.614Z,-6.85
2019-01-18T03:26:50.964Z,-6.86
2019-01-18T03:29:20.250Z,-6.86
2019-01-18T03:31:49.566Z,-6.87
2019-01-18T03:34:18.938Z,-6.86
2019-01-18T03:36:48.244Z,-6.88
2019-01-18T03:39:17.547Z,-6.87
2019-01-18T03:41:46.843Z,-6.86
2019-01-18T03:44:16.183Z,-6.85
2019-01-18T03:46:45.504Z,-6.88
2019-01-18T03:49:14.796Z,-7.25
2019-01-18T03:51:44.251Z,-6.90
2019-01-18T03:54:13.577Z,-6.90
2019-01-18T03:57:01.982Z,-6.91
2019-01-18T03:59:31.427Z,-6.92
2019-01-18T04:02:00.731Z,-7.24
2019-01-18T04:04:30.371Z,-6.94
2019-01-18T04:06:59.673Z,-7.24
2019-01-18T04:09:29.340Z,-6.93
2019-01-18T04:12:17.881Z,-6.92
2019-01-18T04:14:47.207Z,-6.95
2019-01-18T04:17:16.643Z,-6.97
2019-01-18T04:19:45.952Z,-6.97
2019-01-18T04:22:15.357Z,-6.97
2019-01-18T04:24:44.673Z,-7.29
2019-01-18T04:27:14.254Z,-7.01
2019-01-18T04:29:43.551Z,-7.17
2019-01-18T04:32:13.216Z,-7.01
2019-01-18T04:34:42.498Z,-7.01
2019-01-18T04:37:12.185Z,-7.01
2019-01-18T04:39:41.512Z,-6.97
2019-01-18T04:42:10.946Z,-6.99
2019-01-18T04:44:41.228Z,-7.64
2019-01-18T04:47:10.789Z,-7.01
2019-01-18T04:49:40.091Z,-7.03
2019-01-18T04:52:28.459Z,-7.03
2019-01-18T04:54:57.845Z,-7.05
2019-01-18T04:57:27.148Z,-7.07
2019-01-18T04:59:56.825Z,-7.08
2019-01-18T05:02:26.125Z,-7.10
2019-01-18T05:04:55.734Z,-7.11
2019-01-18T05:07:25.035Z,-7.09
2019-01-18T05:09:54.347Z,-7.12
2019-01-18T05:12:23.642Z,-7.13
2019-01-18T05:14:53.127Z,-7.11
2019-01-18T05:17:22.433Z,-7.10
2019-01-18T05:19:52.029Z,-7.13
2019-01-18T05:22:21.320Z,-7.14
2019-01-18T05:24:51.081Z,-7.13
2019-01-18T05:27:20.363Z,-7.15
2019-01-18T05:29:50.124Z,-7.16
2019-01-18T05:32:19.468Z,-7.17
2019-01-18T05:34:49.150Z,-7.17
2019-01-18T05:37:18.435Z,-7.18
2019-01-18T05:39:47.954Z,-7.17
2019-01-18T05:42:17.255Z,-7.16
2019-01-18T05:47:54.189Z,-7.21
2019-01-18T05:50:28.417Z,-7.23
2019-01-18T05:55:57.063Z,-7.24
2019-01-18T06:01:06.004Z,-7.22
2019-01-18T06:03:54.214Z,-7.20
2019-01-18T06:06:23.530Z,-7.21
2019-01-18T06:08:52.998Z,-7.22
2019-01-18T06:11:22.305Z,-7.22
2019-01-18T06:13:51.967Z,-7.22
2019-01-18T06:16:21.303Z,-7.21
2019-01-18T06:18:50.826Z,-7.24
2019-01-18T06:21:21.517Z,-7.22
2019-01-18T06:23:51.175Z,-7.23
2019-01-18T06:26:20.509Z,-7.22
2019-01-18T06:28:49.830Z,-7.22
2019-01-18T06:34:07.685Z,-7.21
2019-01-18T06:36:37.167Z,-7.22
2019-01-18T06:39:08.088Z,-7.21
2019-01-18T06:41:56.295Z,-7.21
2019-01-18T06:44:25.680Z,-7.21
2019-01-18T06:46:55.065Z,-7.52
2019-01-18T06:49:24.357Z,-7.26
2019-01-18T06:51:53.647Z,-7.66
2019-01-18T06:54:23.154Z,-7.20
2019-01-18T06:56:52.472Z,-7.51
2019-01-18T06:59:22.161Z,-7.21
2019-01-18T07:01:51.439Z,-7.20
2019-01-18T07:04:41.497Z,-7.19
2019-01-18T07:07:29.773Z,-7.21
2019-01-18T07:09:59.229Z,-7.21
2019-01-18T07:12:28.481Z,-7.22
2019-01-18T07:14:58.039Z,-7.24
2019-01-18T07:17:27.334Z,-7.24
2019-01-18T07:19:56.780Z,-7.23
2019-01-18T07:22:45.034Z,-7.23
2019-01-18T07:25:43.509Z,-7.23
2019-01-18T07:28:12.846Z,-7.25
2019-01-18T07:31:02.379Z,-7.25
2019-01-18T07:33:31.799Z,-7.22
2019-01-18T07:36:01.087Z,-7.19
2019-01-18T07:38:30.431Z,-7.19
2019-01-18T07:41:18.893Z,-7.18
2019-01-18T07:43:48.188Z,-7.18
2019-01-18T07:46:17.547Z,-7.16
2019-01-18T07:48:46.835Z,-7.16
2019-01-18T07:51:16.154Z,-7.15
2019-01-18T07:53:45.466Z,-7.12
2019-01-18T07:56:14.788Z,-7.12
2019-01-18T07:58:44.071Z,-7.10
2019-01-18T08:01:13.415Z,-7.40
2019-01-18T08:06:36.681Z,-7.06
2019-01-18T08:12:09.417Z,-7.01
2019-01-18T08:14:38.702Z,-7.29
2019-01-18T08:17:08.185Z,-6.98
2019-01-18T08:19:37.490Z,-7.13
2019-01-18T08:27:30.226Z,-6.74
2019-01-18T08:29:59.578Z,-6.72
2019-01-18T08:32:29.202Z,-6.71
2019-01-18T08:34:58.582Z,-6.66
2019-01-18T08:37:28.157Z,-6.63
2019-01-18T08:40:18.068Z,-6.75
2019-01-18T08:46:02.623Z,-6.50
2019-01-18T08:48:32.244Z,-6.43
2019-01-18T08:51:20.439Z,-6.35
2019-01-18T08:53:49.748Z,-6.31
2019-01-18T08:56:19.199Z,-6.21
2019-01-18T08:58:48.506Z,-6.57
2019-01-18T09:01:17.841Z,-6.06
2019-01-18T09:03:47.121Z,-5.87
2019-01-18T09:06:16.743Z,-5.73
2019-01-18T09:08:46.047Z,-5.59
2019-01-18T09:11:34.457Z,-5.45
2019-01-18T09:14:04.136Z,-5.43
2019-01-18T09:16:33.419Z,-5.26
2019-01-18T09:19:03.049Z,-5.08
2019-01-18T09:22:11.648Z,-4.99
2019-01-18T09:24:41.241Z,-4.98
2019-01-18T09:27:10.499Z,-4.94
2019-01-18T09:29:58.837Z,-4.92
2019-01-18T09:32:28.165Z,-4.91
2019-01-18T09:34:57.544Z,-4.91
2019-01-18T09:37:26.965Z,-4.87
2019-01-18T09:39:56.275Z,-4.84
2019-01-18T09:42:25.982Z,-4.89
2019-01-18T09:44:55.331Z,-4.65
2019-01-18T09:47:24.641Z,-4.56
2019-01-18T09:49:54.008Z,-4.50
2019-01-18T09:52:42.223Z,-4.24
2019-01-18T09:55:11.534Z,-3.47
2019-01-18T09:57:59.859Z,-2.35
2019-01-18T10:00:48.209Z,-1.61
2019-01-18T10:03:17.669Z,-2.13
2019-01-18T10:05:46.959Z,-2.23
2019-01-18T10:08:16.421Z,-2.26
2019-01-18T10:10:45.733Z,-2.29
2019-01-18T10:13:15.185Z,-2.33
2019-01-18T10:15:46.004Z,-2.58
2019-01-18T10:18:15.632Z,-2.15
2019-01-18T10:20:44.942Z,-2.43
2019-01-18T10:23:14.361Z,-2.05
2019-01-18T10:25:43.666Z,-1.94
2019-01-18T10:28:13.149Z,-1.82
2019-01-18T10:30:42.461Z,-1.78
2019-01-18T10:33:11.946Z,-1.69
2019-01-18T10:35:41.269Z,-1.63
2019-01-18T10:38:10.886Z,-1.54
2019-01-18T10:40:40.169Z,-1.46
2019-01-18T10:43:21.535Z,-1.36
2019-01-18T10:45:50.829Z,-1.18
2019-01-18T10:48:20.344Z,-1.03
2019-01-18T10:50:49.646Z,-0.97
2019-01-18T10:53:19.210Z,-0.84
2019-01-18T10:55:48.495Z,-0.73
2019-01-18T10:58:18.303Z,-0.61
2019-01-18T11:00:47.740Z,-0.81
2019-01-18T11:03:18.980Z,-0.38
2019-01-18T11:05:48.285Z,-0.29
2019-01-18T11:08:17.796Z,-0.10
2019-01-18T11:10:47.095Z,0.16
2019-01-18T11:13:16.851Z,0.28
2019-01-18T11:15:46.118Z,0.47
2019-01-18T11:18:15.622Z,0.60
2019-01-18T11:20:51.045Z,0.63
2019-01-18T11:25:55.160Z,1.01
2019-01-18T11:28:25.040Z,1.04
2019-01-18T11:30:54.450Z,1.13
2019-01-18T11:33:24.130Z,1.17
2019-01-18T11:35:53.443Z,0.94
2019-01-18T11:38:22.870Z,1.22
2019-01-18T11:40:52.188Z,1.26
2019-01-18T11:43:22.246Z,1.37
2019-01-18T11:45:51.550Z,1.42
2019-01-18T11:48:21.135Z,1.46
2019-01-18T11:50:50.418Z,1.45
2019-01-18T11:53:19.972Z,1.52
2019-01-18T11:55:49.304Z,1.60
2019-01-18T11:58:18.995Z,1.69
2019-01-18T12:00:48.277Z,1.71
2019-01-18T12:03:17.795Z,1.71
2019-01-18T12:05:47.083Z,1.74
2019-01-18T12:08:16.493Z,1.78
2019-01-18T12:10:45.835Z,1.75
2019-01-18T12:13:15.267Z,1.78
2019-01-18T12:15:44.597Z,1.82
2019-01-18T12:18:32.948Z,1.83
2019-01-18T12:21:21.178Z,1.89
2019-01-18T12:23:50.505Z,1.96
2019-01-18T12:26:19.777Z,2.08
2019-01-18T12:28:49.101Z,2.16
2019-01-18T12:31:18.369Z,2.22
2019-01-18T12:33:47.710Z,2.24
2019-01-18T12:38:52.752Z,2.33
2019-01-18T12:41:22.057Z,1.89
2019-01-18T12:43:51.434Z,2.30
2019-01-18T12:46:20.745Z,2.34
2019-01-18T12:48:50.292Z,2.41
2019-01-18T12:51:19.576Z,2.42
2019-01-18T12:53:49.376Z,2.44
2019-01-18T12:56:18.737Z,2.51
2019-01-18T12:59:07.093Z,2.49
2019-01-18T13:01:36.505Z,2.22
2019-01-18T13:04:08.230Z,2.16
2019-01-18T13:06:37.767Z,2.49
2019-01-18T13:12:22.020Z,2.40
2019-01-18T13:14:51.338Z,2.37
2019-01-18T13:17:20.672Z,2.36
2019-01-18T13:19:49.986Z,2.33
2019-01-18T13:22:19.273Z,2.29
2019-01-18T13:24:48.570Z,2.29
2019-01-18T13:27:18.098Z,2.25
2019-01-18T13:29:47.720Z,2.26
2019-01-18T13:32:17.048Z,2.25
2019-01-18T13:34:46.435Z,2.23
2019-01-18T13:37:16.123Z,2.23
2019-01-18T13:39:45.493Z,2.21
2019-01-18T13:42:14.950Z,2.28
2019-01-18T13:44:44.262Z,2.26
2019-01-18T13:47:18.298Z,2.24
2019-01-18T13:49:44.837Z,2.25
2019-01-18T13:52:14.375Z,2.24
2019-01-18T13:54:43.751Z,2.19
2019-01-18T13:57:13.421Z,2.18
2019-01-18T13:59:42.708Z,2.16
2019-01-18T14:02:12.524Z,2.17
2019-01-18T14:04:41.845Z,2.17
2019-01-18T14:07:11.246Z,2.15
2019-01-18T14:09:40.667Z,2.13
2019-01-18T14:12:29.029Z,2.10
2019-01-18T14:17:40.457Z,1.98
2019-01-18T14:20:12.394Z,1.93
2019-01-18T14:22:41.670Z,1.91
2019-01-18T14:25:31.446Z,1.91
2019-01-18T14:28:01.118Z,1.86
2019-01-18T14:30:30.405Z,1.83
2019-01-18T14:33:00.231Z,1.83
2019-01-18T14:38:36.929Z,1.77
2019-01-18T14:41:06.290Z,1.78
2019-01-18T14:43:35.843Z,1.79
2019-01-18T14:46:05.157Z,1.76
2019-01-18T14:48:35.299Z,1.82
2019-01-18T14:51:25.131Z,1.74
2019-01-18T14:53:54.437Z,1.67
2019-01-18T14:56:24.088Z,1.67
2019-01-18T14:58:53.394Z,1.60
2019-01-18T15:01:23.239Z,1.55
2019-01-18T15:03:54.133Z,1.49
2019-01-18T15:06:42.626Z,1.47
2019-01-18T15:09:12.118Z,1.43
2019-01-18T15:11:41.430Z,1.35
2019-01-18T15:14:10.742Z,1.31
2019-01-18T15:16:40.065Z,1.26
2019-01-18T15:19:28.247Z,1.18
2019-01-18T15:21:57.982Z,0.81
2019-01-18T15:24:27.263Z,1.10
2019-01-18T15:27:15.644Z,1.09
2019-01-18T15:29:45.685Z,1.05
2019-01-18T15:32:16.145Z,1.04
2019-01-18T15:35:04.339Z,1.04
2019-01-18T15:37:33.842Z,1.05
2019-01-18T15:40:03.165Z,1.02
2019-01-18T15:42:32.681Z,1.01
2019-01-18T15:45:20.894Z,0.43
2019-01-18T15:47:50.190Z,0.68
2019-01-18T15:50:38.807Z,0.90
2019-01-18T15:53:08.448Z,0.87
2019-01-18T15:55:37.983Z,0.37
2019-01-18T15:58:08.747Z,0.68
2019-01-18T16:00:57.154Z,0.25
2019-01-18T16:03:26.436Z,0.59
2019-01-18T16:05:56.111Z,0.54
2019-01-18T16:08:25.469Z,0.45
2019-01-18T16:10:54.779Z,0.34
2019-01-18T16:13:24.073Z,0.22
2019-01-18T16:16:31.409Z,0.10
2019-01-18T16:19:00.695Z,-0.31
2019-01-18T16:21:30.112Z,-0.09
2019-01-18T16:23:59.508Z,-0.18
2019-01-18T16:26:28.936Z,-0.27
2019-01-18T16:28:58.280Z,-0.38
2019-01-18T16:34:03.208Z,-0.59
2019-01-18T16:36:32.506Z,-0.68
2019-01-18T16:39:02.131Z,-0.76
2019-01-18T16:41:33.504Z,-1.15
2019-01-18T16:44:03.097Z,-0.90
2019-01-18T16:46:34.669Z,-0.95
2019-01-18T16:49:04.019Z,-1.01
2019-01-18T16:51:33.406Z,-1.07
2019-01-18T16:54:02.771Z,-1.12
2019-01-18T16:56:32.214Z,-1.19
2019-01-18T16:59:20.567Z,-1.25
2019-01-18T17:01:50.352Z,-1.32
2019-01-18T17:04:19.696Z,-1.42
2019-01-18T17:06:49.027Z,-1.49
2019-01-18T17:09:37.328Z,-1.57
2019-01-18T17:12:06.726Z,-1.63
2019-01-18T17:14:36.071Z,-1.71
2019-01-18T17:17:44.737Z,-1.76
2019-01-18T17:20:16.916Z,-1.83
2019-01-18T17:22:46.287Z,-1.91
2019-01-18T17:25:15.598Z,-1.99
2019-01-18T17:27:45.203Z,-2.02
2019-01-18T17:30:35.139Z,-2.09
2019-01-18T17:36:23.767Z,-2.23
2019-01-18T17:39:31.063Z,-2.25
2019-01-18T17:42:38.375Z,-2.33
2019-01-18T17:45:34.495Z,-2.40
2019-01-18T17:48:41.840Z,-2.78
2019-01-18T17:51:37.415Z,-2.54
2019-01-18T17:54:28.005Z,-2.91
2019-01-18T17:57:24.178Z,-2.66
2019-01-18T18:00:19.654Z,-2.70
2019-01-18T18:03:26.949Z,-2.77
2019-01-18T18:06:34.398Z,-2.81
2019-01-18T18:09:30.972Z,-2.96
2019-01-18T18:12:38.277Z,-2.90
2019-01-18T18:15:50.986Z,-2.94
2019-01-18T18:18:58.310Z,-2.95
2019-01-18T18:21:51.258Z,-2.99
2019-01-18T18:27:57.239Z,-3.12
2019-01-18T18:30:56.041Z,-3.16
2019-01-18T18:36:53.365Z,-3.24
2019-01-18T18:40:00.675Z,-3.31
2019-01-18T18:42:56.046Z,-3.36
2019-01-18T18:46:03.365Z,-3.71
2019-01-18T18:49:10.774Z,-3.41
2019-01-18T18:52:18.121Z,-3.45
2019-01-18T18:55:25.453Z,-3.49
2019-01-18T18:58:32.835Z,-3.53
2019-01-18T19:01:40.140Z,-3.55
2019-01-18T19:04:29.362Z,-3.55
2019-01-18T19:07:36.813Z,-3.60
2019-01-18T19:10:44.212Z,-3.63
2019-01-18T19:13:51.670Z,-3.67
2019-01-18T19:16:44.102Z,-3.72
2019-01-18T19:19:51.445Z,-3.79
2019-01-18T19:23:00.972Z,-3.83
2019-01-18T19:26:08.279Z,-3.89
2019-01-18T19:29:15.537Z,-3.94
2019-01-18T19:32:22.863Z,-3.95
2019-01-18T19:35:17.968Z,-4.00
2019-01-18T19:38:25.277Z,-4.05
2019-01-18T19:41:32.601Z,-4.07
2019-01-18T19:44:40.059Z,-4.11
2019-01-18T19:47:31.331Z,-4.15
2019-01-18T19:50:38.638Z,-4.14
2019-01-18T19:53:34.879Z,-4.34
2019-01-18T19:56:42.293Z,-4.56
2019-01-18T19:59:49.992Z,-4.22
2019-01-18T20:02:57.297Z,-4.25
2019-01-18T20:06:01.743Z,-4.28
2019-01-18T20:08:56.168Z,-4.31
2019-01-18T20:12:03.476Z,-4.97
2019-01-18T20:15:11.064Z,-4.35
2019-01-18T20:18:24.656Z,-4.39
2019-01-18T20:21:35.322Z,-4.40
2019-01-18T20:24:42.925Z,-4.42
2019-01-18T20:27:32.183Z,-4.43
2019-01-18T20:30:32.993Z,-4.44
2019-01-18T20:33:40.311Z,-4.46
2019-01-18T20:36:47.740Z,-4.48
2019-01-18T20:39:55.265Z,-4.50
2019-01-18T20:43:02.598Z,-5.08
2019-01-18T20:46:10.060Z,-4.53
2019-01-18T20:49:04.378Z,-4.55
2019-01-18T20:51:59.568Z,-4.54
2019-01-18T20:55:06.927Z,-4.55
2019-01-18T20:58:08.573Z,-4.54
2019-01-18T21:01:15.898Z,-4.55
2019-01-18T21:04:13.042Z,-4.53
2019-01-18T21:06:56.040Z,-4.54
2019-01-18T21:09:49.702Z,-4.57
2019-01-18T21:15:59.663Z,-4.64
2019-01-18T21:22:40.700Z,-4.60
2019-01-18T21:25:36.218Z,-4.63
2019-01-18T21:28:43.514Z,-4.68
2019-01-18T21:31:45.632Z,-4.70
2019-01-18T21:34:52.925Z,-4.70
2019-01-18T21:38:00.273Z,-4.68
2019-01-18T21:40:54.232Z,-4.68
2019-01-18T21:44:01.676Z,-4.70
2019-01-18T21:47:08.984Z,-4.73
2019-01-18T21:50:02.046Z,-4.75
2019-01-18T21:53:09.384Z,-4.74
2019-01-18T21:56:19.746Z,-4.77
2019-01-18T21:59:27.065Z,-4.80
2019-01-18T22:02:34.439Z,-4.81
2019-01-18T22:05:27.787Z,-4.82
2019-01-18T22:08:35.093Z,-4.84
2019-01-18T22:11:26.362Z,-4.85
2019-01-18T22:14:25.267Z,-4.84
2019-01-18T22:17:32.607Z,-4.85
2019-01-18T22:20:40.048Z,-4.84
2019-01-18T22:23:52.645Z,-4.83
2019-01-18T22:26:59.988Z,-4.85
2019-01-18T22:30:07.290Z,-4.85
2019-01-18T22:33:08.574Z,-4.84
2019-01-18T22:36:14.610Z,-4.82
2019-01-18T22:39:21.905Z,-4.76
2019-01-18T22:42:29.231Z,-4.77
2019-01-18T22:45:36.590Z,-4.76
2019-01-18T22:48:47.012Z,-4.73
2019-01-18T22:51:37.530Z,-4.73
2019-01-18T22:58:05.880Z,-4.82
2019-01-18T23:01:27.431Z,-4.73
2019-01-18T23:04:21.157Z,-4.70
2019-01-18T23:07:17.265Z,-4.71
2019-01-18T23:10:28.401Z,-5.04
2019-01-18T23:13:35.772Z,-4.69
2019-01-18T23:16:43.229Z,-4.68
2019-01-18T23:19:21.333Z,-4.67
2019-01-18T23:22:14.475Z,-4.67
2019-01-18T23:25:00.186Z,-4.78
2019-01-18T23:28:07.545Z,-4.65
2019-01-18T23:31:09.220Z,-4.64
2019-01-18T23:34:16.657Z,-4.61
2019-01-18T23:40:58.232Z,-4.52
2019-01-18T23:44:05.647Z,-4.47
2019-01-18T23:50:32.725Z,-4.34
2019-01-18T23:53:44.688Z,-4.25
2019-01-18T23:56:47.123Z,-4.19
2019-01-18T23:59:27.993Z,-4.15
